createdAt,value
2023-05-10T00:02:11.509Z,96644.91
2023-05-10T00:04:37.826Z,96639.53
2023-05-10T00:07:04.081Z,96634.41
2023-05-10T00:09:30.339Z,96634.44
2023-05-10T00:11:56.578Z,96630.41
2023-05-10T00:14:22.862Z,96634.44
2023-05-10T00:16:49.255Z,96630.69
2023-05-10T00:19:16.183Z,96634.44
2023-05-10T00:21:42.562Z,96637.13
2023-05-10T00:24:08.824Z,96638.47
2023-05-10T00:26:35.127Z,96640.91
2023-05-10T00:29:01.414Z,96638.22
2023-05-10T00:31:27.777Z,96633.38
2023-05-10T00:33:54.091Z,96638.75
2023-05-10T00:36:20.372Z,96635.53
2023-05-10T00:38:46.645Z,96641.69
2023-05-10T00:41:12.890Z,96638.22
2023-05-10T00:43:39.157Z,96640.63
2023-05-10T00:46:05.510Z,96640.91
2023-05-10T00:48:31.810Z,96633.66
2023-05-10T00:50:58.054Z,96631.78
2023-05-10T00:53:24.317Z,96641.72
2023-05-10T00:55:50.572Z,96637.13
2023-05-10T00:58:16.821Z,96643.59
2023-05-10T01:00:43.121Z,96640.38
2023-05-10T01:03:09.442Z,96641.97
2023-05-10T01:05:35.753Z,96639.81
2023-05-10T01:08:02.053Z,96641.72
2023-05-10T01:10:28.301Z,96636.88
2023-05-10T01:12:54.579Z,96638.22
2023-05-10T01:15:20.836Z,96637.41
2023-05-10T01:17:47.213Z,96635.78
2023-05-10T01:20:13.571Z,96640.09
2023-05-10T01:22:39.976Z,96625.59
2023-05-10T01:25:06.297Z,96633.66
2023-05-10T01:27:32.580Z,96627.47
2023-05-10T01:30:14.187Z,96625.84
2023-05-10T01:32:41.567Z,96637.69
2023-05-10T01:35:07.870Z,96641.16
2023-05-10T01:37:34.142Z,96644.13
2023-05-10T01:40:00.435Z,96635.78
2023-05-10T01:42:26.697Z,96641.44
2023-05-10T01:44:52.957Z,96643.31
2023-05-10T01:47:19.215Z,96643.31
2023-05-10T01:49:45.448Z,96647.88
2023-05-10T01:52:11.697Z,96646.81
2023-05-10T01:54:37.963Z,96643.59
2023-05-10T01:57:04.241Z,96639.81
2023-05-10T01:59:30.514Z,96645.47
2023-05-10T02:01:56.769Z,96654.00
2023-05-10T02:04:23.021Z,96653.50
2023-05-10T02:06:49.385Z,96656.47
2023-05-10T02:09:15.637Z,96650.28
2023-05-10T02:11:41.874Z,96657.53
2023-05-10T02:14:08.112Z,96653.25
2023-05-10T02:16:34.393Z,96655.94
2023-05-10T02:19:00.679Z,96656.47
2023-05-10T02:21:26.915Z,96658.34
2023-05-10T02:23:53.188Z,96654.34
2023-05-10T02:26:19.444Z,96664.53
2023-05-10T02:28:45.695Z,96655.41
2023-05-10T02:31:11.944Z,96654.59
2023-05-10T02:33:38.200Z,96655.38
2023-05-10T02:36:04.450Z,96665.59
2023-05-10T02:38:30.685Z,96673.09
2023-05-10T02:40:56.941Z,96676.31
2023-05-10T02:43:23.211Z,96673.91
2023-05-10T02:45:49.535Z,96677.38
2023-05-10T02:48:15.838Z,96680.59
2023-05-10T02:50:42.128Z,96676.03
2023-05-10T02:53:08.412Z,96680.84
2023-05-10T02:55:34.676Z,96684.59
2023-05-10T02:58:00.959Z,96691.25
2023-05-10T03:00:27.224Z,96689.31
2023-05-10T03:02:53.571Z,96697.09
2023-05-10T03:05:19.842Z,96693.56
2023-05-10T03:07:46.099Z,96699.19
2023-05-10T03:10:12.358Z,96689.03
2023-05-10T03:12:38.603Z,96687.19
2023-05-10T03:15:04.854Z,96685.91
2023-05-10T03:17:31.195Z,96689.66
2023-05-10T03:19:57.463Z,96688.63
2023-05-10T03:22:23.712Z,96693.97
2023-05-10T03:24:49.958Z,96689.16
2023-05-10T03:27:16.229Z,96692.91
2023-05-10T03:29:42.472Z,96693.72
2023-05-10T03:32:08.736Z,96695.31
2023-05-10T03:34:35.014Z,96697.22
2023-05-10T03:37:01.275Z,96698.56
2023-05-10T03:39:27.540Z,96697.47
2023-05-10T03:41:53.777Z,96695.84
2023-05-10T03:44:20.102Z,96691.31
2023-05-10T03:46:46.417Z,96699.09
2023-05-10T03:49:12.704Z,96707.41
2023-05-10T03:51:39.104Z,96700.41
2023-05-10T03:54:05.349Z,96699.53
2023-05-10T03:56:31.632Z,96706.72
2023-05-10T03:58:57.896Z,96710.19
2023-05-10T04:01:24.156Z,96714.72
2023-05-10T04:03:50.513Z,96714.22
2023-05-10T04:06:16.802Z,96712.56
2023-05-10T04:08:43.087Z,96714.44
2023-05-10T04:11:09.350Z,96707.47
2023-05-10T04:13:35.614Z,96715.00
2023-05-10T04:16:01.862Z,96714.16
2023-05-10T04:18:28.120Z,96725.09
2023-05-10T04:20:54.370Z,96720.53
2023-05-10T04:23:20.755Z,96715.19
2023-05-10T04:25:47.014Z,96720.00
2023-05-10T04:28:13.325Z,96710.59
2023-05-10T04:30:39.615Z,96701.50
2023-05-10T04:33:05.968Z,96707.69
2023-05-10T04:35:32.231Z,96699.66
2023-05-10T04:37:58.502Z,96694.56
2023-05-10T04:40:24.784Z,96701.81
2023-05-10T04:42:51.050Z,96694.88
2023-05-10T04:45:17.458Z,96694.91
2023-05-10T04:47:43.779Z,96704.03
2023-05-10T04:50:10.096Z,96688.22
2023-05-10T04:52:36.388Z,96696.03
2023-05-10T04:55:02.680Z,96691.47
2023-05-10T04:57:28.965Z,96692.25
2023-05-10T04:59:55.212Z,96702.00
2023-05-10T05:02:21.543Z,96706.53
2023-05-10T05:04:47.790Z,96706.28
2023-05-10T05:07:14.053Z,96704.69
2023-05-10T05:09:40.360Z,96699.59
2023-05-10T05:12:06.628Z,96705.25
2023-05-10T05:14:32.952Z,96706.31
2023-05-10T05:16:59.209Z,96714.63
2023-05-10T05:19:25.455Z,96713.31
2023-05-10T05:21:51.711Z,96714.66
2023-05-10T05:24:17.959Z,96718.66
2023-05-10T05:26:44.233Z,96711.16
2023-05-10T05:29:10.527Z,96707.94
2023-05-10T05:31:36.830Z,96720.31
2023-05-10T05:34:03.154Z,96720.56
2023-05-10T05:36:29.408Z,96707.69
2023-05-10T05:38:55.686Z,96715.22
2023-05-10T05:41:21.937Z,96722.75
2023-05-10T05:43:48.180Z,96727.81
2023-05-10T05:46:14.452Z,96726.78
2023-05-10T05:48:40.738Z,96724.34
2023-05-10T05:51:07.421Z,96732.66
2023-05-10T05:53:33.837Z,96722.44
2023-05-10T05:56:00.128Z,96725.16
2023-05-10T05:58:26.420Z,96732.13
2023-05-10T06:00:52.689Z,96730.25
2023-05-10T06:03:19.045Z,96729.97
2023-05-10T06:05:45.359Z,96725.72
2023-05-10T06:08:11.616Z,96729.75
2023-05-10T06:10:37.925Z,96727.88
2023-05-10T06:13:04.254Z,96730.31
2023-05-10T06:15:30.572Z,96730.88
2023-05-10T06:17:56.876Z,96725.50
2023-05-10T06:20:23.170Z,96723.59
2023-05-10T06:22:49.481Z,96722.81
2023-05-10T06:25:16.012Z,96728.19
2023-05-10T06:27:42.510Z,96730.06
2023-05-10T06:30:12.852Z,96735.19
2023-05-10T06:32:39.832Z,96732.50
2023-05-10T06:35:06.083Z,96736.78
2023-05-10T06:37:32.329Z,96733.03
2023-05-10T06:39:58.588Z,96734.09
2023-05-10T06:42:24.857Z,96732.50
2023-05-10T06:44:51.113Z,96733.56
2023-05-10T06:47:17.390Z,96735.16
2023-05-10T06:49:43.660Z,96742.41
2023-05-10T06:52:09.930Z,96737.03
2023-05-10T06:54:36.210Z,96738.94
2023-05-10T06:57:03.954Z,96742.69
2023-05-10T06:59:31.159Z,96746.72
2023-05-10T07:01:57.509Z,96739.22
2023-05-10T07:04:23.825Z,96742.97
2023-05-10T07:06:50.105Z,96747.28
2023-05-10T07:09:16.369Z,96745.41
2023-05-10T07:11:42.630Z,96744.88
2023-05-10T07:14:08.887Z,96747.00
2023-05-10T07:16:35.192Z,96742.44
2023-05-10T07:19:01.491Z,96743.25
2023-05-10T07:21:27.803Z,96743.00
2023-05-10T07:23:54.125Z,96752.13
2023-05-10T07:26:20.422Z,96754.56
2023-05-10T07:28:46.689Z,96758.84
2023-05-10T07:31:12.951Z,96755.09
2023-05-10T07:33:39.225Z,96756.97
2023-05-10T07:36:05.476Z,96761.00
2023-05-10T07:38:31.745Z,96761.25
2023-05-10T07:40:58.008Z,96761.53
2023-05-10T07:43:24.258Z,96770.94
2023-05-10T07:45:50.543Z,96765.03
2023-05-10T07:48:16.835Z,96766.91
2023-05-10T07:50:43.102Z,96767.19
2023-05-10T07:53:09.379Z,96771.19
2023-05-10T07:55:36.097Z,96775.22
2023-05-10T07:58:02.394Z,96767.44
2023-05-10T08:00:28.697Z,96767.97
2023-05-10T08:02:55.047Z,96769.31
2023-05-10T08:05:21.375Z,96775.50
2023-05-10T08:07:47.629Z,96761.78
2023-05-10T08:10:13.910Z,96763.16
2023-05-10T08:12:40.175Z,96766.09
2023-05-10T08:15:06.457Z,96771.19
2023-05-10T08:17:32.798Z,96765.81
2023-05-10T08:19:59.097Z,96766.09
2023-05-10T08:22:25.357Z,96769.59
2023-05-10T08:24:51.600Z,96765.28
2023-05-10T08:27:17.881Z,96770.94
2023-05-10T08:29:49.997Z,96771.47
2023-05-10T08:32:16.561Z,96756.94
2023-05-10T08:34:42.800Z,96776.28
2023-05-10T08:37:09.106Z,96772.25
2023-05-10T08:39:35.424Z,96766.88
2023-05-10T08:42:01.701Z,96781.66
2023-05-10T08:44:28.000Z,96764.75
2023-05-10T08:46:54.310Z,96780.03
2023-05-10T08:49:20.614Z,96784.59
2023-05-10T08:51:46.885Z,96780.84
2023-05-10T08:54:13.141Z,96791.84
2023-05-10T08:56:39.443Z,96785.72
2023-05-10T08:59:05.774Z,96790.28
2023-05-10T09:01:32.126Z,96791.34
2023-05-10T09:03:58.488Z,96793.50
2023-05-10T09:06:24.809Z,96790.84
2023-05-10T09:08:51.065Z,96790.56
2023-05-10T09:11:17.729Z,96789.22
2023-05-10T09:13:44.114Z,96795.16
2023-05-10T09:16:21.199Z,96786.53
2023-05-10T09:18:49.018Z,96790.84
2023-05-10T09:21:15.313Z,96781.16
2023-05-10T09:23:41.616Z,96792.44
2023-05-10T09:26:08.025Z,96791.09
2023-05-10T09:28:34.638Z,96799.16
2023-05-10T09:31:00.923Z,96804.00
2023-05-10T09:33:27.225Z,96802.63
2023-05-10T09:35:53.696Z,96795.66
2023-05-10T09:38:21.916Z,96794.56
2023-05-10T09:40:48.186Z,96790.28
2023-05-10T09:43:14.445Z,96793.50
2023-05-10T09:45:40.824Z,96799.13
2023-05-10T09:48:07.549Z,96802.38
2023-05-10T09:50:34.048Z,96796.16
2023-05-10T09:53:00.321Z,96790.81
2023-05-10T09:55:26.589Z,96792.13
2023-05-10T09:57:52.857Z,96796.69
2023-05-10T10:00:19.114Z,96793.97
2023-05-10T10:02:45.425Z,96788.84
2023-05-10T10:05:11.974Z,96793.69
2023-05-10T10:07:38.779Z,96795.56
2023-05-10T10:10:05.282Z,96790.69
2023-05-10T10:12:32.206Z,96785.59
2023-05-10T10:14:59.109Z,96788.78
2023-05-10T10:17:30.532Z,96782.06
2023-05-10T10:19:56.914Z,96780.19
2023-05-10T10:22:23.177Z,96785.28
2023-05-10T10:24:49.445Z,96790.38
2023-05-10T10:27:20.965Z,96779.03
2023-05-10T10:29:47.777Z,96778.47
2023-05-10T10:32:14.051Z,96777.09
2023-05-10T10:34:40.935Z,96781.94
2023-05-10T10:37:07.277Z,96785.97
2023-05-10T10:39:33.625Z,96784.13
2023-05-10T10:41:59.903Z,96790.25
2023-05-10T10:44:26.195Z,96778.59
2023-05-10T10:46:52.513Z,96780.47
2023-05-10T10:49:18.817Z,96781.75
2023-05-10T10:51:45.496Z,96784.47
2023-05-10T10:54:12.085Z,96781.34
2023-05-10T10:56:39.070Z,96781.59
2023-05-10T10:59:08.178Z,96776.19
2023-05-10T11:01:34.922Z,96783.78
2023-05-10T11:04:02.484Z,96781.63
2023-05-10T11:06:28.801Z,96774.84
2023-05-10T11:08:55.099Z,96769.56
2023-05-10T11:11:24.097Z,96764.84
2023-05-10T11:13:51.452Z,96761.56
2023-05-10T11:16:19.318Z,96762.56
2023-05-10T11:18:47.069Z,96764.25
2023-05-10T11:21:15.131Z,96770.13
2023-05-10T11:23:41.437Z,96765.22
2023-05-10T11:26:07.676Z,96767.63
2023-05-10T11:28:33.917Z,96762.63
2023-05-10T11:31:00.285Z,96769.41
2023-05-10T11:33:26.597Z,96767.81
2023-05-10T11:35:55.634Z,96769.59
2023-05-10T11:38:22.069Z,96772.78
2023-05-10T11:40:48.350Z,96770.66
2023-05-10T11:43:14.754Z,96769.75
2023-05-10T11:45:41.210Z,96771.59
2023-05-10T11:48:07.520Z,96763.47
2023-05-10T11:50:34.179Z,96782.19
2023-05-10T11:53:00.948Z,96783.00
2023-05-10T11:55:27.261Z,96771.72
2023-05-10T11:57:53.556Z,96762.50
2023-05-10T12:00:22.049Z,96770.81
2023-05-10T12:02:48.402Z,96777.81
2023-05-10T12:05:15.198Z,96777.22
2023-05-10T12:07:41.477Z,96777.31
2023-05-10T12:10:07.875Z,96773.78
2023-05-10T12:12:34.190Z,96768.28
2023-05-10T12:15:00.513Z,96772.09
2023-05-10T12:17:26.820Z,96776.06
2023-05-10T12:19:53.110Z,96777.38
2023-05-10T12:22:19.361Z,96772.66
2023-05-10T12:24:45.612Z,96765.13
2023-05-10T12:27:11.879Z,96767.25
2023-05-10T12:29:38.154Z,96769.28
2023-05-10T12:32:04.524Z,96771.59
2023-05-10T12:34:30.953Z,96769.81
2023-05-10T12:36:57.459Z,96769.78
2023-05-10T12:39:23.742Z,96759.44
2023-05-10T12:41:50.012Z,96773.22
2023-05-10T12:44:16.282Z,96774.88
2023-05-10T12:46:42.526Z,96774.31
2023-05-10T12:49:09.774Z,96792.66
2023-05-10T12:51:36.315Z,96786.38
2023-05-10T12:54:02.582Z,96773.25
2023-05-10T12:56:28.839Z,96774.09
2023-05-10T12:58:55.123Z,96772.41
2023-05-10T13:01:21.509Z,96768.84
2023-05-10T13:03:47.812Z,96768.72
2023-05-10T13:06:14.096Z,96769.44
2023-05-10T13:08:40.333Z,96780.81
2023-05-10T13:11:06.626Z,96779.19
2023-05-10T13:13:32.904Z,96780.97
2023-05-10T13:15:59.215Z,96780.69
2023-05-10T13:18:25.652Z,96777.91
2023-05-10T13:20:52.051Z,96769.69
2023-05-10T13:23:18.308Z,96772.19
2023-05-10T13:25:44.606Z,96782.59
2023-05-10T13:28:10.860Z,96783.50
2023-05-10T13:30:37.150Z,96779.81
2023-05-10T13:33:03.485Z,96781.59
2023-05-10T13:35:29.837Z,96784.25
2023-05-10T13:37:56.126Z,96771.59
2023-05-10T13:40:22.417Z,96778.69
2023-05-10T13:42:48.824Z,96784.03
2023-05-10T13:45:15.353Z,96772.66
2023-05-10T13:47:42.023Z,96780.41
2023-05-10T13:50:08.519Z,96784.88
2023-05-10T13:52:34.948Z,96773.22
2023-05-10T13:55:01.257Z,96789.09
2023-05-10T13:57:27.504Z,96781.78
2023-05-10T13:59:55.301Z,96778.78
2023-05-10T14:02:22.144Z,96784.13
2023-05-10T14:04:48.417Z,96779.31
2023-05-10T14:07:14.648Z,96771.88
2023-05-10T14:09:40.898Z,96772.50
2023-05-10T14:12:07.179Z,96769.03
2023-05-10T14:14:33.702Z,96770.47
2023-05-10T14:17:00.011Z,96771.06
2023-05-10T14:19:26.303Z,96763.50
2023-05-10T14:21:52.581Z,96770.97
2023-05-10T14:24:18.837Z,96775.28
2023-05-10T14:26:45.163Z,96780.06
2023-05-10T14:29:12.702Z,96766.50
2023-05-10T14:31:39.125Z,96768.34
2023-05-10T14:34:05.519Z,96764.38
2023-05-10T14:36:31.769Z,96772.13
2023-05-10T14:38:58.052Z,96759.78
2023-05-10T14:41:24.343Z,96773.38
2023-05-10T14:43:50.631Z,96760.03
2023-05-10T14:46:16.998Z,96764.84
2023-05-10T14:48:43.370Z,96762.88
2023-05-10T14:51:09.653Z,96766.72
2023-05-10T14:53:35.945Z,96761.00
2023-05-10T14:56:02.234Z,96760.50
2023-05-10T14:58:28.521Z,96763.63
2023-05-10T15:00:54.792Z,96762.63
2023-05-10T15:03:21.456Z,96772.59
2023-05-10T15:05:48.343Z,96772.34
2023-05-10T15:08:14.700Z,96775.22
2023-05-10T15:10:40.979Z,96776.94
2023-05-10T15:13:07.279Z,96774.03
2023-05-10T15:15:33.666Z,96768.84
2023-05-10T15:18:00.058Z,96772.41
2023-05-10T15:20:26.428Z,96768.34
2023-05-10T15:22:52.688Z,96767.97
2023-05-10T15:25:19.245Z,96766.69
2023-05-10T15:27:45.675Z,96766.06
2023-05-10T15:30:11.971Z,96768.72
2023-05-10T15:32:38.326Z,96774.16
2023-05-10T15:35:04.569Z,96763.41
2023-05-10T15:37:30.836Z,96778.16
2023-05-10T15:39:57.587Z,96775.47
2023-05-10T15:42:23.860Z,96775.47
2023-05-10T15:44:50.133Z,96780.91
2023-05-10T15:47:16.378Z,96779.06
2023-05-10T15:49:42.698Z,96789.63
2023-05-10T15:52:09.071Z,96779.97
2023-05-10T15:54:35.341Z,96785.09
2023-05-10T15:57:01.626Z,96782.19
2023-05-10T15:59:27.875Z,96783.94
2023-05-10T16:01:54.151Z,96788.50
2023-05-10T16:04:20.419Z,96787.75
2023-05-10T16:06:46.728Z,96791.56
2023-05-10T16:09:13.030Z,96798.81
2023-05-10T16:11:39.308Z,96796.44
2023-05-10T16:14:07.134Z,96797.53
2023-05-10T16:16:33.713Z,96798.44
2023-05-10T16:19:00.084Z,96791.09
2023-05-10T16:21:26.371Z,96793.53
2023-05-10T16:23:52.618Z,96808.38
2023-05-10T16:26:18.881Z,96803.56
2023-05-10T16:28:45.124Z,96811.09
2023-05-10T16:31:11.486Z,96809.19
2023-05-10T16:33:37.761Z,96807.31
2023-05-10T16:36:04.032Z,96808.44
2023-05-10T16:38:30.289Z,96811.09
2023-05-10T16:40:56.580Z,96806.22
2023-05-10T16:43:24.640Z,96808.97
2023-05-10T16:45:52.332Z,96806.06
2023-05-10T16:48:18.605Z,96810.31
2023-05-10T16:50:44.877Z,96807.34
2023-05-10T16:53:11.153Z,96807.06
2023-05-10T16:55:37.432Z,96804.88
2023-05-10T16:58:03.696Z,96804.09
2023-05-10T17:00:29.978Z,96795.53
2023-05-10T17:02:56.309Z,96795.78
2023-05-10T17:05:22.667Z,96802.19
2023-05-10T17:07:48.930Z,96802.44
2023-05-10T17:10:17.420Z,96798.38
2023-05-10T17:12:43.686Z,96802.38
2023-05-10T17:15:10.137Z,96794.81
2023-05-10T17:17:36.834Z,96800.06
2023-05-10T17:20:06.126Z,96792.66
2023-05-10T17:22:32.600Z,96789.25
2023-05-10T17:24:58.896Z,96798.56
2023-05-10T17:27:25.173Z,96790.56
2023-05-10T17:29:51.433Z,96784.75
2023-05-10T17:32:17.792Z,96787.88
2023-05-10T17:34:44.058Z,96781.22
2023-05-10T17:37:10.859Z,96777.16
2023-05-10T17:39:39.350Z,96777.38
2023-05-10T17:42:06.231Z,96773.59
2023-05-10T17:44:32.534Z,96778.91
2023-05-10T17:46:58.810Z,96782.31
2023-05-10T17:49:25.133Z,96777.50
2023-05-10T17:51:51.913Z,96783.56
2023-05-10T17:54:18.691Z,96774.19
2023-05-10T17:56:45.113Z,96788.88
2023-05-10T17:59:11.583Z,96787.16
2023-05-10T18:01:38.105Z,96787.72
2023-05-10T18:04:04.418Z,96789.38
2023-05-10T18:06:30.693Z,96798.75
2023-05-10T18:08:56.972Z,96802.97
2023-05-10T18:11:23.240Z,96801.47
2023-05-10T18:13:49.491Z,96796.88
2023-05-10T18:16:15.870Z,96802.63
2023-05-10T18:18:42.184Z,96796.19
2023-05-10T18:23:51.592Z,96797.25
2023-05-10T18:26:18.000Z,96800.50
2023-05-10T18:28:44.393Z,96805.34
2023-05-10T18:31:10.774Z,96810.75
2023-05-10T18:33:37.276Z,96809.19
2023-05-10T18:36:03.713Z,96813.78
2023-05-10T18:38:30.138Z,96817.00
2023-05-10T18:40:56.452Z,96815.41
2023-05-10T18:43:22.751Z,96818.16
2023-05-10T18:45:49.046Z,96821.91
2023-05-10T18:48:15.382Z,96821.66
2023-05-10T18:50:41.655Z,96817.34
2023-05-10T18:53:07.920Z,96819.81
2023-05-10T18:55:34.218Z,96818.22
2023-05-10T18:58:00.493Z,96823.06
2023-05-10T19:00:26.742Z,96824.94
2023-05-10T19:02:53.045Z,96825.47
2023-05-10T19:05:19.549Z,96824.94
2023-05-10T19:07:46.083Z,96822.81
2023-05-10T19:10:12.356Z,96822.56
2023-05-10T19:12:38.620Z,96830.88
2023-05-10T19:15:04.872Z,96822.81
2023-05-10T19:17:31.363Z,96834.38
2023-05-10T19:19:57.697Z,96829.81
2023-05-10T19:22:35.346Z,96823.09
2023-05-10T19:25:03.174Z,96830.09
2023-05-10T19:27:31.810Z,96836.56
2023-05-10T19:29:58.368Z,96836.56
2023-05-10T19:32:25.234Z,96829.03
2023-05-10T19:34:52.222Z,96835.75
2023-05-10T19:37:18.951Z,96839.78
2023-05-10T19:39:45.318Z,96837.38
2023-05-10T19:42:11.608Z,96836.56
2023-05-10T19:44:37.888Z,96834.66
2023-05-10T19:47:04.263Z,96837.38
2023-05-10T19:49:30.624Z,96831.72
2023-05-10T19:51:56.916Z,96840.06
2023-05-10T19:54:23.165Z,96830.63
2023-05-10T19:56:49.420Z,96831.44
2023-05-10T19:59:15.698Z,96838.97
2023-05-10T20:01:41.968Z,96836.81
2023-05-10T20:04:08.325Z,96836.56
2023-05-10T20:06:34.612Z,96847.56
2023-05-10T20:09:00.883Z,96838.97
2023-05-10T20:11:27.156Z,96838.97
2023-05-10T20:13:53.430Z,96835.75
2023-05-10T20:16:19.724Z,96830.09
2023-05-10T20:18:46.030Z,96835.75
2023-05-10T20:21:12.329Z,96838.69
2023-05-10T20:23:38.586Z,96832.50
2023-05-10T20:26:04.847Z,96836.84
2023-05-10T20:28:31.121Z,96844.88
2023-05-10T20:30:57.374Z,96844.63
2023-05-10T20:33:23.665Z,96841.94
2023-05-10T20:35:49.951Z,96847.03
2023-05-10T20:38:16.286Z,96847.28
2023-05-10T20:40:42.559Z,96841.09
2023-05-10T20:43:08.839Z,96843.78
2023-05-10T20:45:36.928Z,96849.44
2023-05-10T20:48:03.814Z,96841.09
2023-05-10T20:50:30.103Z,96848.38
2023-05-10T20:52:56.382Z,96842.72
2023-05-10T20:55:22.686Z,96849.19
2023-05-10T20:57:48.947Z,96847.03
2023-05-10T21:00:15.285Z,96848.91
2023-05-10T21:02:41.734Z,96845.69
2023-05-10T21:05:08.058Z,96845.69
2023-05-10T21:07:34.416Z,96853.19
2023-05-10T21:10:00.672Z,96853.19
2023-05-10T21:12:26.966Z,96855.09
2023-05-10T21:14:53.225Z,96860.19
2023-05-10T21:17:20.229Z,96855.06
2023-05-10T21:19:46.718Z,96863.41
2023-05-10T21:22:13.019Z,96856.41
2023-05-10T21:24:39.270Z,96856.72
2023-05-10T21:27:05.558Z,96854.84
2023-05-10T21:29:31.839Z,96852.97
2023-05-10T21:31:58.138Z,96855.66
2023-05-10T21:34:24.437Z,96855.06
2023-05-10T21:36:50.677Z,96850.28
2023-05-10T21:39:16.930Z,96851.88
2023-05-10T21:41:43.173Z,96855.38
2023-05-10T21:44:09.504Z,96834.38
2023-05-10T21:46:35.780Z,96842.22
2023-05-10T21:49:02.025Z,96837.06
2023-05-10T21:51:28.282Z,96840.03
2023-05-10T21:53:54.550Z,96836.53
2023-05-10T21:56:20.820Z,96832.50
2023-05-10T21:58:47.074Z,96845.38
2023-05-10T22:01:13.360Z,96834.63
2023-05-10T22:03:39.698Z,96835.44
2023-05-10T22:06:05.981Z,96828.47
2023-05-10T22:08:32.263Z,96832.22
2023-05-10T22:10:58.525Z,96828.19
2023-05-10T22:13:24.809Z,96830.06
2023-05-10T22:15:51.068Z,96825.22
2023-05-10T22:18:17.388Z,96831.16
2023-05-10T22:20:43.657Z,96822.28
2023-05-10T22:23:09.925Z,96834.63
2023-05-10T22:25:37.272Z,96833.84
2023-05-10T22:28:03.549Z,96834.91
2023-05-10T22:30:31.026Z,96833.28
2023-05-10T22:32:59.125Z,96833.00
2023-05-10T22:35:25.455Z,96833.81
2023-05-10T22:37:51.721Z,96837.28
2023-05-10T22:40:18.173Z,96831.94
2023-05-10T22:42:44.603Z,96832.19
2023-05-10T22:45:10.837Z,96830.59
2023-05-10T22:47:37.140Z,96831.13
2023-05-10T22:50:03.454Z,96823.88
2023-05-10T22:52:29.707Z,96829.22
2023-05-10T22:54:55.954Z,96833.81
2023-05-10T22:57:22.199Z,96838.09
2023-05-10T22:59:48.497Z,96841.06
2023-05-10T23:02:14.787Z,96836.75
2023-05-10T23:04:41.075Z,96848.03
2023-05-10T23:07:07.366Z,96837.03
2023-05-10T23:09:33.616Z,96836.50
2023-05-10T23:11:59.894Z,96833.25
2023-05-10T23:14:26.173Z,96834.06
2023-05-10T23:16:52.417Z,96827.09
2023-05-10T23:19:18.732Z,96827.88
2023-05-10T23:21:45.054Z,96827.34
2023-05-10T23:24:13.303Z,96834.34
2023-05-10T23:26:39.568Z,96828.41
2023-05-10T23:29:05.841Z,96824.13
2023-05-10T23:31:32.125Z,96826.25
2023-05-10T23:33:58.428Z,96823.84
2023-05-10T23:36:24.747Z,96826.78
2023-05-10T23:38:51.004Z,96819.81
2023-05-10T23:41:17.270Z,96821.13
2023-05-10T23:43:43.518Z,96819.25
2023-05-10T23:46:09.838Z,96816.31
2023-05-10T23:48:36.097Z,96809.31
2023-05-10T23:51:02.340Z,96811.75
2023-05-10T23:53:28.596Z,96808.00
2023-05-10T23:55:54.878Z,96810.69
2023-05-10T23:58:21.183Z,96810.94
